ANS553 SARC-SAEZ
Flight info
| Callsign | ANS553 |
|---|---|
| Flight time | N/A |
| Altitude | 38000 |
| Route | KILIP2M KILIP UL793 GUA UZ129 PAGON PAGON7U |
| Aircraft | B737/M-MSDFGHILRVWSB1/LB1 |
Departure
| Time | 2026-04-30 21:32 |
|---|---|
| Airport | Corrientes Airport (SARC) |
Arrival
| Time | N/A |
|---|---|
| Airport | Ezeiza International Airport - Ministro Pistarini (SAEZ) |
| Time | Latitude | Longitude | Altitude | Speed | Heading |
|---|---|---|---|---|---|
| 2026-04-30 20:59 | -27.44864 | -58.75828 | 213 ft | 0 kts | 185° |
| 2026-04-30 21:22 | -27.44838 | -58.75823 | 213 ft | 3 kts | 202° |
| 2026-04-30 21:23 | -27.44822 | -58.75813 | 213 ft | 3 kts | 238° |
| 2026-04-30 21:23 | -27.44818 | -58.75797 | 223 ft | 1 kts | 277° |
| 2026-04-30 21:23 | -27.44818 | -58.75793 | 213 ft | 0 kts | 277° |
| 2026-04-30 21:26 | -27.44817 | -58.75805 | 217 ft | 8 kts | 277° |
| 2026-04-30 21:26 | -27.44810 | -58.75861 | 213 ft | 0 kts | 277° |
| 2026-04-30 21:27 | -27.44810 | -58.75873 | 213 ft | 4 kts | 267° |
| 2026-04-30 21:27 | -27.44817 | -58.75925 | 215 ft | 7 kts | 279° |
| 2026-04-30 21:27 | -27.44808 | -58.75982 | 213 ft | 7 kts | 280° |
| 2026-04-30 21:28 | -27.44739 | -58.76209 | 212 ft | 20 kts | 354° |
| 2026-04-30 21:28 | -27.44607 | -58.76189 | 218 ft | 18 kts | 9° |
| 2026-04-30 21:28 | -27.44335 | -58.76146 | 218 ft | 23 kts | 8° |
| 2026-04-30 21:29 | -27.44174 | -58.76121 | 219 ft | 23 kts | 8° |
| 2026-04-30 21:29 | -27.43720 | -58.76050 | 214 ft | 21 kts | 8° |
| 2026-04-30 21:30 | -27.43493 | -58.76024 | 212 ft | 13 kts | 65° |
| 2026-04-30 21:31 | -27.43553 | -58.76024 | 213 ft | 0 kts | 187° |
| 2026-04-30 21:31 | -27.43749 | -58.76055 | 219 ft | 66 kts | 188° |
| 2026-04-30 21:32 | -27.45527 | -58.76314 | 528 ft | 163 kts | 185° |
| 2026-04-30 21:32 | -27.46662 | -58.76426 | 1226 ft | 168 kts | 177° |
| 2026-04-30 21:32 | -27.47908 | -58.76441 | 1802 ft | 187 kts | 177° |
| 2026-04-30 21:32 | -27.49311 | -58.76477 | 2167 ft | 219 kts | 179° |
| 2026-04-30 21:33 | -27.50928 | -58.76547 | 2450 ft | 246 kts | 179° |
| 2026-04-30 21:33 | -27.54608 | -58.76713 | 3416 ft | 283 kts | 180° |
| 2026-04-30 21:33 | -27.56607 | -58.76803 | 4346 ft | 288 kts | 180° |
| 2026-04-30 21:34 | -27.58611 | -58.76892 | 5370 ft | 290 kts | 181° |
| 2026-04-30 21:34 | -27.62645 | -58.77065 | 7292 ft | 296 kts | 183° |
| 2026-04-30 21:34 | -27.64738 | -58.77153 | 8095 ft | 305 kts | 183° |
| 2026-04-30 21:35 | -27.66879 | -58.77242 | 8923 ft | 311 kts | 183° |
| 2026-04-30 21:35 | -27.69060 | -58.77332 | 9761 ft | 317 kts | 183° |
| 2026-04-30 21:35 | -27.71307 | -58.77424 | 10370 ft | 330 kts | 183° |
| 2026-04-30 21:35 | -27.73696 | -58.77523 | 10576 ft | 356 kts | 183° |
| 2026-04-30 21:36 | -27.76237 | -58.77629 | 10978 ft | 372 kts | 183° |
| 2026-04-30 21:36 | -27.78846 | -58.77735 | 11699 ft | 376 kts | 183° |
| 2026-04-30 21:37 | -27.86759 | -58.78058 | 14076 ft | 384 kts | 183° |
| 2026-04-30 21:37 | -27.89412 | -58.78167 | 14765 ft | 387 kts | 183° |
| 2026-04-30 21:37 | -27.92151 | -58.78280 | 15469 ft | 391 kts | 184° |
| 2026-04-30 21:37 | -27.94851 | -58.78391 | 16161 ft | 395 kts | 184° |
| 2026-04-30 21:38 | -27.97612 | -58.78505 | 16886 ft | 398 kts | 184° |
| 2026-04-30 21:38 | -28.00389 | -58.78620 | 17618 ft | 402 kts | 185° |
| 2026-04-30 21:38 | -28.03197 | -58.78736 | 18298 ft | 405 kts | 185° |
| 2026-04-30 21:38 | -28.06030 | -58.78854 | 18887 ft | 409 kts | 185° |
| 2026-04-30 21:39 | -28.08893 | -58.78972 | 19480 ft | 413 kts | 185° |
| 2026-04-30 21:39 | -28.11776 | -58.79092 | 20083 ft | 416 kts | 185° |
| 2026-04-30 21:39 | -28.14675 | -58.79212 | 20679 ft | 419 kts | 185° |
| 2026-04-30 21:39 | -28.17611 | -58.79333 | 21267 ft | 423 kts | 185° |
| 2026-04-30 21:40 | -28.20564 | -58.79455 | 21870 ft | 426 kts | 186° |
| 2026-04-30 21:40 | -28.23534 | -58.79578 | 22445 ft | 430 kts | 186° |
| 2026-04-30 21:40 | -28.26542 | -58.79703 | 23012 ft | 433 kts | 186° |
| 2026-04-30 21:40 | -28.29568 | -58.79828 | 23545 ft | 437 kts | 186° |
| 2026-04-30 21:41 | -28.32620 | -58.79955 | 23998 ft | 440 kts | 186° |
| 2026-04-30 21:41 | -28.35705 | -58.79989 | 24468 ft | 445 kts | 182° |
| 2026-04-30 21:41 | -28.38815 | -58.79810 | 24955 ft | 449 kts | 180° |
| 2026-04-30 21:41 | -28.41943 | -58.79532 | 25431 ft | 453 kts | 180° |
| 2026-04-30 21:42 | -28.45094 | -58.79225 | 25912 ft | 456 kts | 180° |
| 2026-04-30 21:42 | -28.48231 | -58.78925 | 26369 ft | 458 kts | 180° |
| 2026-04-30 21:42 | -28.51453 | -58.78633 | 26839 ft | 461 kts | 181° |
| 2026-04-30 21:42 | -28.54624 | -58.78362 | 27268 ft | 463 kts | 181° |
| 2026-04-30 21:43 | -28.57890 | -58.78096 | 27702 ft | 466 kts | 181° |
| 2026-04-30 21:43 | -28.61098 | -58.77841 | 28113 ft | 469 kts | 181° |
| 2026-04-30 21:43 | -28.64366 | -58.77584 | 28534 ft | 472 kts | 181° |
| 2026-04-30 21:43 | -28.67655 | -58.77326 | 28948 ft | 475 kts | 182° |
| 2026-04-30 21:44 | -28.70959 | -58.77066 | 29384 ft | 477 kts | 182° |
| 2026-04-30 21:44 | -28.74297 | -58.76803 | 29819 ft | 479 kts | 182° |
| 2026-04-30 21:44 | -28.77633 | -58.76539 | 30172 ft | 482 kts | 182° |
| 2026-04-30 21:44 | -28.80984 | -58.76274 | 30470 ft | 485 kts | 182° |
| 2026-04-30 21:45 | -28.84374 | -58.76006 | 30752 ft | 488 kts | 182° |
| 2026-04-30 21:45 | -28.87771 | -58.75736 | 31054 ft | 491 kts | 182° |
| 2026-04-30 21:45 | -28.91182 | -58.75464 | 31448 ft | 491 kts | 183° |
| 2026-04-30 21:45 | -28.94554 | -58.75194 | 31910 ft | 489 kts | 183° |
| 2026-04-30 21:46 | -28.97941 | -58.74922 | 32345 ft | 489 kts | 183° |
| 2026-04-30 21:46 | -29.01341 | -58.74651 | 32704 ft | 489 kts | 184° |
| 2026-04-30 21:46 | -29.04745 | -58.74380 | 33041 ft | 490 kts | 184° |
| 2026-04-30 21:46 | -29.08155 | -58.74109 | 33410 ft | 490 kts | 184° |
| 2026-04-30 21:47 | -29.11552 | -58.73838 | 33816 ft | 489 kts | 184° |
| 2026-04-30 21:47 | -29.14948 | -58.73566 | 34138 ft | 489 kts | 184° |
| 2026-04-30 21:47 | -29.18347 | -58.73295 | 34449 ft | 489 kts | 184° |
| 2026-04-30 21:47 | -29.21744 | -58.73022 | 34836 ft | 486 kts | 184° |
| 2026-04-30 21:48 | -29.25113 | -58.72751 | 35253 ft | 483 kts | 185° |
| 2026-04-30 21:48 | -29.28456 | -58.72484 | 35548 ft | 483 kts | 185° |
| 2026-04-30 21:48 | -29.31814 | -58.72217 | 35775 ft | 484 kts | 185° |
| 2026-04-30 21:48 | -29.35138 | -58.71962 | 36027 ft | 482 kts | 187° |
| 2026-04-30 21:49 | -29.38433 | -58.72283 | 36271 ft | 460 kts | 205° |
| 2026-04-30 21:49 | -29.41358 | -58.73525 | 36602 ft | 439 kts | 216° |
| 2026-04-30 21:49 | -29.44051 | -58.75042 | 36969 ft | 435 kts | 217° |
| 2026-04-30 21:49 | -29.46784 | -58.76634 | 37206 ft | 435 kts | 217° |
| 2026-04-30 21:50 | -29.49461 | -58.78187 | 37425 ft | 436 kts | 217° |
| 2026-04-30 21:50 | -29.52176 | -58.79738 | 37719 ft | 435 kts | 217° |
| 2026-04-30 21:50 | -29.54893 | -58.81267 | 37959 ft | 436 kts | 217° |
| 2026-04-30 21:50 | -29.57637 | -58.82805 | 37932 ft | 440 kts | 217° |
| 2026-04-30 21:51 | -29.63156 | -58.85882 | 37935 ft | 439 kts | 217° |
| 2026-04-30 21:51 | -29.68896 | -58.88352 | 37937 ft | 460 kts | 196° |
| 2026-04-30 21:52 | -29.72158 | -58.88382 | 37980 ft | 472 kts | 187° |
| 2026-04-30 21:52 | -29.75449 | -58.88132 | 37956 ft | 475 kts | 185° |
| 2026-04-30 21:52 | -29.81993 | -58.87488 | 37933 ft | 474 kts | 185° |
| 2026-04-30 21:53 | -29.88556 | -58.86886 | 37941 ft | 472 kts | 186° |
| 2026-04-30 21:53 | -29.95106 | -58.86353 | 37929 ft | 471 kts | 186° |
| 2026-04-30 21:54 | -30.01658 | -58.85843 | 37945 ft | 472 kts | 186° |
| 2026-04-30 21:54 | -30.08223 | -58.85332 | 37951 ft | 473 kts | 186° |
| 2026-04-30 21:55 | -30.14809 | -58.84814 | 37930 ft | 475 kts | 186° |
| 2026-04-30 21:55 | -30.21423 | -58.84291 | 37954 ft | 477 kts | 186° |
| 2026-04-30 21:56 | -30.28055 | -58.83766 | 37945 ft | 478 kts | 185° |
| 2026-04-30 21:56 | -30.34702 | -58.83239 | 37936 ft | 479 kts | 185° |
| 2026-04-30 21:57 | -30.41322 | -58.82713 | 37936 ft | 480 kts | 185° |
| 2026-04-30 21:57 | -30.47987 | -58.82183 | 37939 ft | 480 kts | 185° |
| 2026-04-30 21:58 | -30.54657 | -58.81635 | 37936 ft | 480 kts | 185° |